createdAt,value
2019-05-11T00:00:41.463Z,14.60
2019-05-11T00:03:09.908Z,15.32
2019-05-11T00:05:38.491Z,16.77
2019-05-11T00:08:07.015Z,17.42
2019-05-11T00:10:35.687Z,23.62
2019-05-11T00:13:04.108Z,18.50
2019-05-11T00:15:32.560Z,17.90
2019-05-11T00:18:01.062Z,18.27
2019-05-11T00:20:29.568Z,14.58
2019-05-11T00:22:58.518Z,16.20
2019-05-11T00:25:26.940Z,18.17
2019-05-11T00:27:55.527Z,16.60
2019-05-11T00:30:24.192Z,14.47
2019-05-11T00:32:52.622Z,15.58
2019-05-11T00:35:21.049Z,20.62
2019-05-11T00:37:49.654Z,14.50
2019-05-11T00:40:18.544Z,19.70
2019-05-11T00:42:46.969Z,17.00
2019-05-11T00:45:15.708Z,16.50
2019-05-11T00:47:44.142Z,18.05
2019-05-11T00:50:14.238Z,18.45
2019-05-11T00:52:42.685Z,19.55
2019-05-11T00:55:11.192Z,14.93
2019-05-11T00:57:39.628Z,16.32
2019-05-11T01:00:08.908Z,15.88
2019-05-11T01:02:37.367Z,11.30
2019-05-11T01:05:07.849Z,14.45
2019-05-11T01:07:36.542Z,22.10
2019-05-11T01:10:06.894Z,14.85
2019-05-11T01:12:35.319Z,22.55
2019-05-11T01:15:04.347Z,16.32
2019-05-11T01:17:32.859Z,15.48
2019-05-11T01:20:01.308Z,14.87
2019-05-11T01:22:29.876Z,16.35
2019-05-11T01:24:58.309Z,13.72
2019-05-11T01:27:26.744Z,16.75
2019-05-11T01:29:55.730Z,17.70
2019-05-11T01:32:24.162Z,13.98
2019-05-11T01:34:52.586Z,18.50
2019-05-11T01:37:21.208Z,17.82
2019-05-11T01:39:49.632Z,17.07
2019-05-11T01:42:18.063Z,20.30
2019-05-11T01:44:46.638Z,19.95
2019-05-11T01:47:15.238Z,13.28
2019-05-11T01:49:43.663Z,17.62
2019-05-11T01:52:12.689Z,17.27
2019-05-11T01:54:41.127Z,15.85
2019-05-11T01:57:09.698Z,16.95
2019-05-11T01:59:38.135Z,17.00
2019-05-11T02:02:06.570Z,18.35
2019-05-11T02:04:34.993Z,16.05
2019-05-11T02:07:03.580Z,17.62
2019-05-11T02:09:32.058Z,12.78
2019-05-11T02:12:00.534Z,19.05
2019-05-11T02:14:29.022Z,19.15
2019-05-11T02:16:57.803Z,18.50
2019-05-11T02:19:26.237Z,16.15
2019-05-11T02:21:54.855Z,19.80
2019-05-11T02:24:23.647Z,17.77
2019-05-11T02:26:52.076Z,14.53
2019-05-11T02:29:21.139Z,17.02
2019-05-11T02:31:49.557Z,18.55
2019-05-11T02:34:17.982Z,14.03
2019-05-11T02:36:47.148Z,15.43
2019-05-11T02:39:15.659Z,17.23
2019-05-11T02:41:44.113Z,15.50
2019-05-11T02:44:12.870Z,18.82
2019-05-11T02:46:41.361Z,25.62
2019-05-11T02:49:09.775Z,17.00
2019-05-11T02:51:40.179Z,18.20
2019-05-11T02:54:10.656Z,14.93
2019-05-11T02:56:39.081Z,14.13
2019-05-11T02:59:07.525Z,16.25
2019-05-11T03:01:35.952Z,16.23
2019-05-11T03:04:04.389Z,19.00
2019-05-11T03:06:32.808Z,14.63
2019-05-11T03:09:01.617Z,17.73
2019-05-11T03:11:30.052Z,14.25
2019-05-11T03:13:58.563Z,17.80
2019-05-11T03:16:26.999Z,13.98
2019-05-11T03:18:55.417Z,15.15
2019-05-11T03:21:23.898Z,15.78
2019-05-11T03:23:52.690Z,13.50
2019-05-11T03:26:21.228Z,21.73
2019-05-11T03:28:50.001Z,19.48
2019-05-11T03:31:18.483Z,16.15
2019-05-11T03:33:47.015Z,14.63
2019-05-11T03:36:15.428Z,15.13
2019-05-11T03:38:43.848Z,14.18
2019-05-11T03:41:12.645Z,18.60
2019-05-11T03:43:41.546Z,20.00
2019-05-11T03:46:09.986Z,14.85
2019-05-11T03:48:38.406Z,21.05
2019-05-11T03:51:06.883Z,19.98
2019-05-11T03:53:35.313Z,15.25
2019-05-11T03:56:03.756Z,16.48
2019-05-11T03:58:32.327Z,17.52
2019-05-11T04:01:00.757Z,17.87
2019-05-11T04:03:29.428Z,17.52
2019-05-11T04:05:57.914Z,14.53
2019-05-11T04:08:26.335Z,20.43
2019-05-11T04:10:54.788Z,17.27
2019-05-11T04:13:23.304Z,14.90
2019-05-11T04:15:51.738Z,15.80
2019-05-11T04:18:20.161Z,15.23
2019-05-11T04:20:48.697Z,13.68
2019-05-11T04:23:17.120Z,16.50
2019-05-11T04:25:45.614Z,16.10
2019-05-11T04:28:14.522Z,21.05
2019-05-11T04:30:42.984Z,14.65
2019-05-11T04:33:11.413Z,20.85
2019-05-11T04:35:39.871Z,14.15
2019-05-11T04:38:08.492Z,21.37
2019-05-11T04:40:36.930Z,15.90
2019-05-11T04:43:05.395Z,17.52
2019-05-11T04:45:33.813Z,17.30
2019-05-11T04:48:02.249Z,18.30
2019-05-11T04:50:30.792Z,17.02
2019-05-11T04:52:59.210Z,14.65
2019-05-11T04:55:27.666Z,19.77
2019-05-11T04:57:56.271Z,20.43
2019-05-11T05:00:24.976Z,19.73
2019-05-11T05:02:53.414Z,14.05
2019-05-11T05:05:22.130Z,26.07
2019-05-11T05:07:50.837Z,16.95
2019-05-11T05:10:20.544Z,18.80
2019-05-11T05:12:51.519Z,15.35
2019-05-11T05:15:19.904Z,19.75
2019-05-11T05:17:48.317Z,20.97
2019-05-11T05:20:17.149Z,16.02
2019-05-11T05:22:45.833Z,20.25
2019-05-11T05:25:14.255Z,18.30
2019-05-11T05:27:42.846Z,17.07
2019-05-11T05:30:12.091Z,19.27
2019-05-11T05:32:40.516Z,15.25
2019-05-11T05:35:09.308Z,19.55
2019-05-11T05:37:37.728Z,18.73
2019-05-11T05:40:06.886Z,21.62
2019-05-11T05:42:36.992Z,14.05
2019-05-11T05:45:07.467Z,14.03
2019-05-11T05:47:35.892Z,12.45
2019-05-11T05:50:06.344Z,19.42
2019-05-11T05:52:34.765Z,11.97
2019-05-11T05:55:04.074Z,12.23
2019-05-11T05:57:32.850Z,13.13
2019-05-11T06:00:01.355Z,14.43
2019-05-11T06:02:29.754Z,15.43
2019-05-11T06:04:58.705Z,14.85
2019-05-11T06:07:27.176Z,14.60
2019-05-11T06:09:55.585Z,15.25
2019-05-11T06:12:24.130Z,17.57
2019-05-11T06:14:52.552Z,20.62
2019-05-11T06:17:21.054Z,13.72
2019-05-11T06:19:49.606Z,13.98
2019-05-11T06:22:18.028Z,14.60
2019-05-11T06:24:46.471Z,15.68
2019-05-11T06:27:14.932Z,10.82
2019-05-11T06:29:46.431Z,13.95
2019-05-11T06:32:14.892Z,11.68
2019-05-11T06:34:43.431Z,17.30
2019-05-11T06:37:12.238Z,20.77
2019-05-11T06:39:40.798Z,18.35
2019-05-11T06:42:09.299Z,15.48
2019-05-11T06:44:37.722Z,17.25
2019-05-11T06:47:06.161Z,12.28
2019-05-11T06:49:34.604Z,14.40
2019-05-11T06:52:03.040Z,15.98
2019-05-11T06:54:31.464Z,17.57
2019-05-11T06:57:00.100Z,11.43
2019-05-11T06:59:28.502Z,16.45
2019-05-11T07:01:57.010Z,13.43
2019-05-11T07:04:25.536Z,11.55
2019-05-11T07:06:54.275Z,12.70
2019-05-11T07:09:22.699Z,11.85
2019-05-11T07:11:51.414Z,12.65
2019-05-11T07:14:21.453Z,8.63
2019-05-11T07:16:50.120Z,10.85
2019-05-11T07:19:18.658Z,10.48
2019-05-11T07:21:47.104Z,9.03
2019-05-11T07:24:15.694Z,10.63
2019-05-11T07:26:44.325Z,10.40
2019-05-11T07:29:12.954Z,8.03
2019-05-11T07:31:41.398Z,13.58
2019-05-11T07:34:09.849Z,12.98
2019-05-11T07:36:38.911Z,9.55
2019-05-11T07:39:09.618Z,7.47
2019-05-11T07:41:38.953Z,13.10
2019-05-11T07:44:09.804Z,15.15
2019-05-11T07:46:37.775Z,13.18
2019-05-11T07:49:08.744Z,8.23
2019-05-11T07:51:38.726Z,8.50
2019-05-11T07:54:08.410Z,8.80
2019-05-11T07:56:39.118Z,8.68
2019-05-11T07:59:07.990Z,11.22
2019-05-11T08:01:38.716Z,8.60
2019-05-11T08:04:07.787Z,9.65
2019-05-11T08:06:38.904Z,9.83
2019-05-11T08:09:08.343Z,10.93
2019-05-11T08:11:38.886Z,11.53
2019-05-11T08:14:07.843Z,9.48
2019-05-11T08:16:38.677Z,9.48
2019-05-11T08:19:10.038Z,8.18
2019-05-11T08:21:38.828Z,10.25
2019-05-11T08:24:09.130Z,11.97
2019-05-11T08:26:38.590Z,7.22
2019-05-11T08:29:08.101Z,11.28
2019-05-11T08:31:38.423Z,11.90
2019-05-11T08:34:08.836Z,9.55
2019-05-11T08:36:37.945Z,8.78
2019-05-11T08:39:07.943Z,9.88
2019-05-11T08:41:38.458Z,8.83
2019-05-11T08:44:08.920Z,11.57
2019-05-11T08:46:38.595Z,9.23
2019-05-11T08:49:08.690Z,10.63
2019-05-11T08:51:38.601Z,7.05
2019-05-11T08:54:08.999Z,9.15
2019-05-11T08:56:38.244Z,8.60
2019-05-11T08:59:07.995Z,12.20
2019-05-11T09:01:39.343Z,15.83
2019-05-11T09:04:08.952Z,9.15
2019-05-11T09:06:37.820Z,7.58
2019-05-11T09:09:09.006Z,8.98
2019-05-11T09:11:38.907Z,11.03
2019-05-11T09:14:08.400Z,8.30
2019-05-11T09:16:38.351Z,6.62
2019-05-11T09:19:08.781Z,10.08
2019-05-11T09:21:38.267Z,9.48
2019-05-11T09:24:08.491Z,9.08
2019-05-11T09:26:38.935Z,6.80
2019-05-11T09:29:08.661Z,10.13
2019-05-11T09:31:38.381Z,7.37
2019-05-11T09:34:08.938Z,15.48
2019-05-11T09:36:38.925Z,6.08
2019-05-11T09:39:08.651Z,9.05
2019-05-11T09:41:38.299Z,8.38
2019-05-11T09:44:08.910Z,5.92
2019-05-11T09:46:38.473Z,13.08
2019-05-11T09:49:08.021Z,8.35
2019-05-11T09:51:38.075Z,8.88
2019-05-11T09:54:07.900Z,6.67
2019-05-11T09:56:38.149Z,7.75
2019-05-11T09:59:08.869Z,10.32
2019-05-11T10:01:37.863Z,7.92
2019-05-11T10:04:09.022Z,7.25
2019-05-11T10:06:39.292Z,9.25
2019-05-11T10:09:08.366Z,7.03
2019-05-11T10:11:39.808Z,9.55
2019-05-11T10:14:08.481Z,9.28
2019-05-11T10:16:38.603Z,5.22
2019-05-11T10:19:08.536Z,6.03
2019-05-11T10:21:38.442Z,5.85
2019-05-11T10:24:08.520Z,7.10
2019-05-11T10:26:38.446Z,6.00
2019-05-11T10:29:07.881Z,9.88
2019-05-11T10:31:38.563Z,5.70
2019-05-11T10:34:08.638Z,7.58
2019-05-11T10:36:38.553Z,6.65
2019-05-11T10:39:08.598Z,9.95
2019-05-11T10:41:38.739Z,5.42
2019-05-11T10:44:08.210Z,9.20
2019-05-11T10:46:38.071Z,5.85
2019-05-11T10:49:08.253Z,10.23
2019-05-11T10:51:38.302Z,7.72
2019-05-11T10:54:08.762Z,9.15
2019-05-11T10:56:38.831Z,6.12
2019-05-11T10:59:08.987Z,5.35
2019-05-11T11:01:38.189Z,9.55
2019-05-11T11:04:07.796Z,5.97
2019-05-11T11:06:38.493Z,8.15
2019-05-11T11:09:08.985Z,10.65
2019-05-11T11:11:38.210Z,5.87
2019-05-11T11:14:08.731Z,5.60
2019-05-11T11:16:42.452Z,6.97
2019-05-11T11:19:07.698Z,6.12
2019-05-11T11:21:38.348Z,7.58
2019-05-11T11:24:07.638Z,4.62
2019-05-11T11:26:37.999Z,6.92
2019-05-11T11:29:08.611Z,5.10
2019-05-11T11:31:37.974Z,8.75
2019-05-11T11:34:08.299Z,5.62
2019-05-11T11:36:37.644Z,6.42
2019-05-11T11:39:08.374Z,5.75
2019-05-11T11:41:37.879Z,8.30
2019-05-11T11:44:07.849Z,5.12
2019-05-11T11:46:51.390Z,7.78
2019-05-11T11:49:09.064Z,7.20
2019-05-11T11:51:37.926Z,7.28
2019-05-11T11:54:08.540Z,7.85
2019-05-11T11:56:38.031Z,7.03
2019-05-11T11:59:08.494Z,5.37
2019-05-11T12:01:38.513Z,6.75
2019-05-11T12:04:08.294Z,8.15
2019-05-11T12:06:38.574Z,8.08
2019-05-11T12:09:08.955Z,7.17
2019-05-11T12:11:38.194Z,9.10
2019-05-11T12:14:08.727Z,5.45
2019-05-11T12:16:38.874Z,6.53
2019-05-11T12:19:08.661Z,6.53
2019-05-11T12:21:37.957Z,7.40
2019-05-11T12:24:08.115Z,5.85
2019-05-11T12:26:38.859Z,6.62
2019-05-11T12:29:09.515Z,7.58
2019-05-11T12:31:38.098Z,6.17
2019-05-11T12:34:08.691Z,10.38
2019-05-11T12:36:38.726Z,8.43
2019-05-11T12:39:08.491Z,8.75
2019-05-11T12:41:38.718Z,6.00
2019-05-11T12:44:08.267Z,7.78
2019-05-11T12:46:39.375Z,11.33
2019-05-11T12:49:08.044Z,3.95
2019-05-11T12:51:38.247Z,7.78
2019-05-11T12:54:08.290Z,7.87
2019-05-11T12:56:38.282Z,7.20
2019-05-11T12:59:08.283Z,8.03
2019-05-11T13:01:38.155Z,10.40
2019-05-11T13:04:08.932Z,6.42
2019-05-11T13:06:38.522Z,9.35
2019-05-11T13:09:08.119Z,10.13
2019-05-11T13:11:37.971Z,5.62
2019-05-11T13:14:07.998Z,4.67
2019-05-11T13:16:37.816Z,5.78
2019-05-11T13:19:08.345Z,6.83
2019-05-11T13:21:38.286Z,6.42
2019-05-11T13:24:08.596Z,7.78
2019-05-11T13:26:37.989Z,6.03
2019-05-11T13:29:07.768Z,7.87
2019-05-11T13:31:38.391Z,4.60
2019-05-11T13:34:08.394Z,5.35
2019-05-11T13:36:38.208Z,5.28
2019-05-11T13:39:08.898Z,6.70
2019-05-11T13:41:38.335Z,6.20
2019-05-11T13:44:08.045Z,8.10
2019-05-11T13:46:38.700Z,4.95
2019-05-11T13:49:08.579Z,7.72
2019-05-11T13:51:38.824Z,6.95
2019-05-11T13:54:08.030Z,7.05
2019-05-11T13:56:37.982Z,6.50
2019-05-11T13:59:10.749Z,5.55
2019-05-11T14:01:39.489Z,5.87
2019-05-11T14:04:08.710Z,6.33
2019-05-11T14:06:38.255Z,5.92
2019-05-11T14:09:08.435Z,6.12
2019-05-11T14:11:39.066Z,6.83
2019-05-11T14:14:07.883Z,6.60
2019-05-11T14:16:37.862Z,6.55
2019-05-11T14:19:08.671Z,4.45
2019-05-11T14:21:38.533Z,9.78
2019-05-11T14:24:07.961Z,5.42
2019-05-11T14:26:38.628Z,7.33
2019-05-11T14:29:08.470Z,5.55
2019-05-11T14:31:38.704Z,3.87
2019-05-11T14:34:08.882Z,4.05
2019-05-11T14:36:38.723Z,4.65
2019-05-11T14:39:08.360Z,5.85
2019-05-11T14:41:38.084Z,7.05
2019-05-11T14:44:08.939Z,6.47
2019-05-11T14:46:38.426Z,3.95
2019-05-11T14:49:07.901Z,5.72
2019-05-11T14:51:38.863Z,6.20
2019-05-11T14:54:08.154Z,3.55
2019-05-11T14:56:41.525Z,7.58
2019-05-11T14:59:10.098Z,4.92
2019-05-11T15:01:38.543Z,5.25
2019-05-11T15:04:09.118Z,3.83
2019-05-11T15:06:38.613Z,3.10
2019-05-11T15:09:08.556Z,4.90
2019-05-11T15:11:38.890Z,5.53
2019-05-11T15:14:08.154Z,4.62
2019-05-11T15:16:38.330Z,5.30
2019-05-11T15:19:08.030Z,3.35
2019-05-11T15:21:38.735Z,4.10
2019-05-11T15:24:09.070Z,4.28
2019-05-11T15:26:38.085Z,7.47
2019-05-11T15:29:08.148Z,4.55
2019-05-11T15:31:38.061Z,4.55
2019-05-11T15:34:08.523Z,4.78
2019-05-11T15:36:38.759Z,5.92
2019-05-11T15:39:07.899Z,5.92
2019-05-11T15:41:38.584Z,3.20
2019-05-11T15:44:11.367Z,6.53
2019-05-11T15:46:38.733Z,5.37
2019-05-11T15:49:08.859Z,3.12
2019-05-11T15:51:41.084Z,4.62
2019-05-11T15:54:08.096Z,6.22
2019-05-11T15:56:38.528Z,5.42
2019-05-11T15:59:08.686Z,5.75
2019-05-11T16:01:38.316Z,3.42
2019-05-11T16:04:09.126Z,4.78
2019-05-11T16:06:37.600Z,6.50
2019-05-11T16:09:08.449Z,4.28
2019-05-11T16:11:38.788Z,4.33
2019-05-11T16:14:08.729Z,7.40
2019-05-11T16:16:39.109Z,3.77
2019-05-11T16:19:13.890Z,4.40
2019-05-11T16:21:38.729Z,8.00
2019-05-11T16:24:07.926Z,6.33
2019-05-11T16:26:36.822Z,7.47
2019-05-11T16:29:05.228Z,5.05
2019-05-11T16:31:33.731Z,4.92
2019-05-11T16:34:02.865Z,7.72
2019-05-11T16:36:31.290Z,6.17
2019-05-11T16:38:59.842Z,10.05
2019-05-11T16:41:29.137Z,5.17
2019-05-11T16:43:58.560Z,5.28
2019-05-11T16:46:28.336Z,4.00
2019-05-11T16:48:57.868Z,6.53
2019-05-11T16:51:28.415Z,6.83
2019-05-11T16:53:58.774Z,6.20
2019-05-11T16:56:27.121Z,7.17
2019-05-11T16:58:55.559Z,4.42
2019-05-11T17:01:24.010Z,6.45
2019-05-11T17:03:52.632Z,6.47
2019-05-11T17:06:21.247Z,4.95
2019-05-11T17:08:50.024Z,6.05
2019-05-11T17:11:18.806Z,4.17
2019-05-11T17:13:48.344Z,7.17
2019-05-11T17:16:17.918Z,3.98
2019-05-11T17:18:48.309Z,8.60
2019-05-11T17:21:18.360Z,7.42
2019-05-11T17:23:48.803Z,3.60
2019-05-11T17:26:18.980Z,6.62
2019-05-11T17:28:48.919Z,4.22
2019-05-11T17:31:18.827Z,5.37
2019-05-11T17:33:47.858Z,6.92
2019-05-11T17:36:18.509Z,5.75
2019-05-11T17:38:47.879Z,9.30
2019-05-11T17:41:16.697Z,8.15
2019-05-11T17:43:45.129Z,8.70
2019-05-11T17:46:13.663Z,8.48
2019-05-11T17:48:42.348Z,7.85
2019-05-11T17:51:21.376Z,7.95
2019-05-11T17:53:40.940Z,10.18
2019-05-11T17:56:09.630Z,9.50
2019-05-11T17:58:38.119Z,8.30
2019-05-11T18:01:09.331Z,15.45
2019-05-11T18:03:38.591Z,6.58
2019-05-11T18:06:08.446Z,8.55
2019-05-11T18:08:37.094Z,6.28
2019-05-11T18:11:08.207Z,12.47
2019-05-11T18:13:35.917Z,8.85
2019-05-11T18:16:04.339Z,8.75
2019-05-11T18:18:32.921Z,10.20
2019-05-11T18:21:01.383Z,6.58
2019-05-11T18:23:30.082Z,9.23
2019-05-11T18:25:58.990Z,10.00
2019-05-11T18:28:29.186Z,9.48
2019-05-11T18:30:58.355Z,7.87
2019-05-11T18:33:27.683Z,9.85
2019-05-11T18:35:58.565Z,11.28
2019-05-11T18:38:27.617Z,9.85
2019-05-11T18:40:58.038Z,9.55
2019-05-11T18:43:28.065Z,8.75
2019-05-11T18:45:58.122Z,8.10
2019-05-11T18:48:28.878Z,7.80
2019-05-11T18:50:58.902Z,11.90
2019-05-11T18:53:28.930Z,7.25
2019-05-11T18:55:58.979Z,9.08
2019-05-11T18:58:27.988Z,11.90
2019-05-11T19:00:56.727Z,9.43
2019-05-11T19:03:25.289Z,6.55
2019-05-11T19:05:53.792Z,8.90
2019-05-11T19:08:22.212Z,8.55
2019-05-11T19:10:50.756Z,9.40
2019-05-11T19:13:29.472Z,15.20
2019-05-11T19:15:49.336Z,9.08
2019-05-11T19:18:17.961Z,6.70
2019-05-11T19:20:49.335Z,10.53
2019-05-11T19:23:19.014Z,11.45
2019-05-11T19:25:48.016Z,7.67
2019-05-11T19:28:18.511Z,13.03
2019-05-11T19:30:48.829Z,10.60
2019-05-11T19:33:19.002Z,13.43
2019-05-11T19:35:48.111Z,11.35
2019-05-11T19:38:18.833Z,15.00
2019-05-11T19:40:48.396Z,8.88
2019-05-11T19:43:18.561Z,12.90
2019-05-11T19:45:48.631Z,11.80
2019-05-11T19:48:17.230Z,8.65
2019-05-11T19:50:59.850Z,7.65
2019-05-11T19:53:15.805Z,7.78
2019-05-11T19:55:44.462Z,6.58
2019-05-11T19:58:13.149Z,11.68
2019-05-11T20:00:41.594Z,10.03
2019-05-11T20:03:10.112Z,9.13
2019-05-11T20:05:38.775Z,11.35
2019-05-11T20:08:07.924Z,10.82
2019-05-11T20:10:38.370Z,11.12
2019-05-11T20:13:07.941Z,10.00
2019-05-11T20:15:38.168Z,12.33
2019-05-11T20:18:07.936Z,6.37
2019-05-11T20:20:37.660Z,8.30
2019-05-11T20:23:07.828Z,8.05
2019-05-11T20:25:37.989Z,9.30
2019-05-11T20:28:06.612Z,11.20
2019-05-11T20:30:36.056Z,12.43
2019-05-11T20:33:04.881Z,13.05
2019-05-11T20:35:33.312Z,10.90
2019-05-11T20:38:01.729Z,17.67
2019-05-11T20:40:30.209Z,8.80
2019-05-11T20:42:58.883Z,7.47
2019-05-11T20:45:28.577Z,10.25
2019-05-11T20:47:57.477Z,12.78
2019-05-11T20:50:25.991Z,11.25
2019-05-11T20:52:54.431Z,7.25
2019-05-11T20:55:23.389Z,9.45
2019-05-11T20:57:52.173Z,11.45
2019-05-11T21:00:21.437Z,6.55
2019-05-11T21:02:50.201Z,12.05
2019-05-11T21:05:18.770Z,15.45
2019-05-11T21:07:47.213Z,10.15
2019-05-11T21:10:16.564Z,10.20
2019-05-11T21:12:45.013Z,11.88
2019-05-11T21:15:15.094Z,9.08
2019-05-11T21:17:43.531Z,9.48
2019-05-11T21:20:12.759Z,7.20
2019-05-11T21:22:41.183Z,10.88
2019-05-11T21:25:10.847Z,11.65
2019-05-11T21:27:39.274Z,9.78
2019-05-11T21:30:09.726Z,16.87
2019-05-11T21:32:40.137Z,9.18
2019-05-11T21:35:09.475Z,9.35
2019-05-11T21:37:39.087Z,10.78
2019-05-11T21:40:09.022Z,8.15
2019-05-11T21:42:38.918Z,7.65
2019-05-11T21:45:10.016Z,7.45
2019-05-11T21:47:39.626Z,5.87
2019-05-11T21:50:09.731Z,8.50
2019-05-11T21:52:38.940Z,14.25
2019-05-11T21:55:09.771Z,9.13
2019-05-11T21:57:38.380Z,15.78
2019-05-11T22:00:09.158Z,10.03
2019-05-11T22:02:38.561Z,7.85
2019-05-11T22:05:09.664Z,10.23
2019-05-11T22:07:41.605Z,12.35
2019-05-11T22:10:09.458Z,12.00
2019-05-11T22:12:39.015Z,10.45
2019-05-11T22:15:11.609Z,6.95
2019-05-11T22:17:40.359Z,11.35
2019-05-11T22:20:09.722Z,10.10
2019-05-11T22:22:38.895Z,9.63
2019-05-11T22:25:09.325Z,9.48
2019-05-11T22:27:38.866Z,15.78
2019-05-11T22:30:08.642Z,6.65
2019-05-11T22:32:38.298Z,8.90
2019-05-11T22:35:08.249Z,8.90
2019-05-11T22:37:38.616Z,12.68
2019-05-11T22:40:08.449Z,13.93
2019-05-11T22:42:37.016Z,10.30
2019-05-11T22:45:10.315Z,11.85
2019-05-11T22:47:39.568Z,9.28
2019-05-11T22:50:10.035Z,16.70
2019-05-11T22:52:40.308Z,6.75
2019-05-11T22:55:11.753Z,13.43
2019-05-11T22:57:40.384Z,11.30
2019-05-11T23:00:10.911Z,11.70
2019-05-11T23:02:39.501Z,9.58
2019-05-11T23:05:09.015Z,9.25
2019-05-11T23:07:41.201Z,10.45
2019-05-11T23:10:09.256Z,8.13
2019-05-11T23:12:38.588Z,9.03
2019-05-11T23:15:12.418Z,9.88
2019-05-11T23:17:41.126Z,9.70
2019-05-11T23:20:10.980Z,8.80
2019-05-11T23:22:57.011Z,13.72
2019-05-11T23:25:18.673Z,8.60
2019-05-11T23:27:48.585Z,11.60
2019-05-11T23:30:19.767Z,9.08
2019-05-11T23:32:48.762Z,9.45
2019-05-11T23:35:18.882Z,10.35
2019-05-11T23:37:49.489Z,12.28
2019-05-11T23:40:19.754Z,10.90
2019-05-11T23:42:49.217Z,10.45
2019-05-11T23:45:19.034Z,10.05
2019-05-11T23:47:49.014Z,11.88
2019-05-11T23:50:18.840Z,7.55
2019-05-11T23:52:50.278Z,11.90
2019-05-11T23:55:19.245Z,8.25
2019-05-11T23:57:48.566Z,9.18
